createdAt,value
2019-02-05T00:01:02.036Z,34.45
2019-02-05T00:03:31.023Z,38.28
2019-02-05T00:06:00.004Z,30.65
2019-02-05T00:08:28.909Z,34.80
2019-02-05T00:11:02.896Z,35.98
2019-02-05T00:13:31.881Z,37.20
2019-02-05T00:16:00.909Z,35.33
2019-02-05T00:18:29.882Z,35.60
2019-02-05T00:20:58.783Z,33.92
2019-02-05T00:23:27.757Z,35.50
2019-02-05T00:26:05.891Z,31.87
2019-02-05T00:28:27.391Z,34.98
2019-02-05T00:30:56.377Z,39.63
2019-02-05T00:33:25.359Z,44.05
2019-02-05T00:35:54.348Z,37.98
2019-02-05T00:38:23.372Z,34.45
2019-02-05T00:40:52.396Z,42.25
2019-02-05T00:43:21.440Z,42.00
2019-02-05T00:45:50.354Z,35.83
2019-02-05T00:48:19.271Z,36.98
2019-02-05T00:50:48.290Z,33.25
2019-02-05T00:53:17.363Z,34.18
2019-02-05T00:55:46.332Z,40.43
2019-02-05T00:58:15.334Z,34.40
2019-02-05T01:00:44.246Z,36.80
2019-02-05T01:03:13.212Z,40.92
2019-02-05T01:05:42.207Z,37.35
2019-02-05T01:08:11.283Z,42.60
2019-02-05T01:10:40.524Z,37.17
2019-02-05T01:13:09.499Z,42.93
2019-02-05T01:15:38.347Z,36.53
2019-02-05T01:18:12.272Z,40.63
2019-02-05T01:20:41.266Z,39.10
2019-02-05T01:23:10.268Z,38.63
2019-02-05T01:25:40.074Z,37.10
2019-02-05T01:28:09.049Z,43.00
2019-02-05T01:30:37.945Z,41.80
2019-02-05T01:33:06.925Z,45.28
2019-02-05T01:35:35.905Z,47.35
2019-02-05T01:38:06.304Z,39.13
2019-02-05T01:40:35.927Z,42.00
2019-02-05T01:43:04.901Z,47.27
2019-02-05T01:45:33.828Z,45.23
2019-02-05T01:48:02.812Z,41.30
2019-02-05T01:50:31.758Z,37.78
2019-02-05T01:53:01.380Z,36.98
2019-02-05T01:55:30.208Z,46.65
2019-02-05T01:57:59.126Z,35.15
2019-02-05T02:00:30.878Z,43.20
2019-02-05T02:03:00.121Z,37.55
2019-02-05T02:05:29.597Z,37.28
2019-02-05T02:07:58.977Z,37.50
2019-02-05T02:10:29.463Z,48.52
2019-02-05T02:12:58.791Z,38.67
2019-02-05T02:15:27.871Z,42.50
2019-02-05T02:17:56.835Z,42.15
2019-02-05T02:20:25.823Z,41.95
2019-02-05T02:22:55.109Z,46.53
2019-02-05T02:25:24.098Z,39.95
2019-02-05T02:27:53.074Z,51.23
2019-02-05T02:30:28.094Z,43.80
2019-02-05T02:32:57.065Z,44.93
2019-02-05T02:35:26.076Z,44.55
2019-02-05T02:37:55.364Z,41.63
2019-02-05T02:40:24.406Z,43.55
2019-02-05T02:42:53.408Z,45.03
2019-02-05T02:45:22.391Z,42.45
2019-02-05T02:47:51.471Z,46.58
2019-02-05T02:50:20.460Z,41.63
2019-02-05T02:52:49.821Z,43.83
2019-02-05T02:55:18.839Z,43.02
2019-02-05T02:57:47.889Z,49.75
2019-02-05T03:00:18.373Z,46.70
2019-02-05T03:02:47.535Z,43.85
2019-02-05T03:05:18.168Z,46.40
2019-02-05T03:07:47.432Z,42.48
2019-02-05T03:10:18.984Z,48.17
2019-02-05T03:12:48.139Z,59.45
2019-02-05T03:15:17.304Z,45.03
2019-02-05T03:17:46.347Z,48.80
2019-02-05T03:20:15.796Z,49.30
2019-02-05T03:22:45.419Z,50.00
2019-02-05T03:25:17.339Z,47.98
2019-02-05T03:27:46.308Z,51.50
2019-02-05T03:30:17.540Z,60.55
2019-02-05T03:32:46.601Z,48.95
2019-02-05T03:35:15.881Z,45.40
2019-02-05T03:37:45.047Z,48.60
2019-02-05T03:40:52.691Z,57.67
2019-02-05T03:43:21.701Z,55.00
2019-02-05T03:45:50.734Z,49.33
2019-02-05T03:48:19.729Z,52.95
2019-02-05T03:50:51.619Z,53.63
2019-02-05T03:53:22.742Z,51.98
2019-02-05T03:56:31.287Z,52.75
2019-02-05T03:59:26.214Z,56.28
2019-02-05T04:02:05.839Z,54.00
2019-02-05T04:05:08.557Z,49.58
2019-02-05T04:08:27.813Z,54.70
2019-02-05T04:11:28.120Z,51.00
2019-02-05T04:14:22.200Z,60.88
2019-02-05T04:17:39.831Z,56.77
2019-02-05T04:20:30.827Z,70.40
2019-02-05T04:23:48.454Z,48.40
2019-02-05T04:27:10.275Z,63.95
2019-02-05T04:30:11.277Z,55.52
2019-02-05T04:33:05.500Z,54.20
2019-02-05T04:36:20.709Z,59.77
2019-02-05T04:39:27.897Z,54.73
2019-02-05T04:42:28.622Z,73.45
2019-02-05T04:45:38.561Z,55.55
2019-02-05T04:48:44.470Z,54.03
2019-02-05T04:51:52.095Z,71.75
2019-02-05T04:54:50.276Z,53.33
2019-02-05T04:57:56.953Z,83.60
2019-02-05T05:00:54.039Z,57.80
2019-02-05T05:03:29.402Z,58.00
2019-02-05T05:06:36.012Z,64.22
2019-02-05T05:09:53.686Z,66.42
2019-02-05T05:12:23.079Z,66.90
2019-02-05T05:14:52.135Z,67.22
2019-02-05T05:17:21.170Z,66.62
2019-02-05T05:19:50.446Z,59.42
2019-02-05T05:22:19.509Z,68.07
2019-02-05T05:24:48.713Z,73.90
2019-02-05T05:27:19.473Z,68.80
2019-02-05T05:29:48.938Z,80.25
2019-02-05T05:32:18.538Z,66.22
2019-02-05T05:34:47.530Z,82.82
2019-02-05T05:37:22.775Z,75.57
2019-02-05T05:39:51.667Z,63.78
2019-02-05T05:42:20.661Z,72.95
2019-02-05T05:44:49.762Z,93.55
2019-02-05T05:47:18.796Z,74.27
2019-02-05T05:49:47.861Z,66.77
2019-02-05T05:52:16.894Z,86.67
2019-02-05T05:54:47.469Z,64.47
2019-02-05T05:57:18.687Z,73.02
2019-02-05T05:59:47.101Z,90.72
2019-02-05T06:02:16.912Z,80.10
2019-02-05T06:04:45.923Z,71.92
2019-02-05T06:07:14.857Z,73.02
2019-02-05T06:09:44.179Z,73.50
2019-02-05T06:12:13.227Z,70.05
2019-02-05T06:14:42.220Z,79.80
2019-02-05T06:17:11.141Z,78.28
2019-02-05T06:19:40.095Z,67.42
2019-02-05T06:22:09.114Z,76.95
2019-02-05T06:24:38.167Z,62.25
2019-02-05T06:27:14.135Z,98.92
2019-02-05T06:29:43.132Z,64.87
2019-02-05T06:32:13.979Z,69.85
2019-02-05T06:34:42.963Z,66.72
2019-02-05T06:37:12.015Z,58.75
2019-02-05T06:39:41.089Z,60.15
2019-02-05T06:42:10.084Z,80.62
2019-02-05T06:44:39.162Z,67.20
2019-02-05T06:47:09.738Z,65.80
2019-02-05T06:49:38.668Z,60.55
2019-02-05T06:52:07.925Z,65.03
2019-02-05T06:54:36.928Z,64.50
2019-02-05T06:57:05.975Z,67.27
2019-02-05T06:59:34.885Z,63.23
2019-02-05T07:02:04.242Z,65.30
2019-02-05T07:04:34.304Z,64.15
2019-02-05T07:07:03.362Z,76.05
2019-02-05T07:09:32.480Z,67.35
2019-02-05T07:12:01.586Z,85.25
2019-02-05T07:14:30.646Z,65.75
2019-02-05T07:16:59.659Z,65.80
2019-02-05T07:19:28.923Z,63.98
2019-02-05T07:21:58.044Z,58.40
2019-02-05T07:24:27.223Z,86.57
2019-02-05T07:26:56.369Z,92.10
2019-02-05T07:29:25.550Z,79.82
2019-02-05T07:31:54.599Z,64.65
2019-02-05T07:34:23.669Z,75.15
2019-02-05T07:36:52.620Z,60.90
2019-02-05T07:39:21.613Z,74.90
2019-02-05T07:41:50.727Z,62.35
2019-02-05T07:44:19.834Z,64.65
2019-02-05T07:46:48.889Z,82.12
2019-02-05T07:49:17.886Z,72.08
2019-02-05T07:51:47.023Z,67.08
2019-02-05T07:54:16.312Z,69.92
2019-02-05T07:56:45.435Z,92.02
2019-02-05T07:59:14.572Z,75.45
2019-02-05T08:01:43.543Z,69.05
2019-02-05T08:04:12.593Z,77.67
2019-02-05T08:06:41.742Z,77.08
2019-02-05T08:09:13.933Z,81.00
2019-02-05T08:11:43.267Z,81.45
2019-02-05T08:14:12.487Z,75.03
2019-02-05T08:16:41.587Z,75.20
2019-02-05T08:19:10.711Z,80.38
2019-02-05T08:21:39.818Z,75.62
2019-02-05T08:24:08.932Z,88.10
2019-02-05T08:26:38.049Z,76.90
2019-02-05T08:29:07.296Z,82.82
2019-02-05T08:31:36.420Z,77.97
2019-02-05T08:34:05.612Z,84.52
2019-02-05T08:36:34.596Z,88.50
2019-02-05T08:39:05.404Z,81.63
2019-02-05T08:41:34.415Z,81.57
2019-02-05T08:44:03.460Z,91.12
2019-02-05T08:46:32.891Z,101.87
2019-02-05T08:49:02.035Z,83.25
2019-02-05T08:51:31.087Z,119.40
2019-02-05T08:54:00.221Z,81.85
2019-02-05T08:56:29.395Z,78.02
2019-02-05T08:58:58.487Z,85.15
2019-02-05T09:01:27.617Z,99.95
2019-02-05T09:03:56.966Z,89.58
2019-02-05T09:06:25.944Z,66.80
2019-02-05T09:08:54.975Z,77.30
2019-02-05T09:11:24.969Z,66.50
2019-02-05T09:13:54.087Z,73.42
2019-02-05T09:16:23.189Z,63.15
2019-02-05T09:18:52.330Z,61.15
2019-02-05T09:21:21.442Z,60.63
2019-02-05T09:23:50.557Z,55.20
2019-02-05T09:26:19.632Z,74.12
2019-02-05T09:28:48.930Z,82.88
2019-02-05T09:31:17.948Z,64.07
2019-02-05T09:33:47.065Z,58.42
2019-02-05T09:36:16.191Z,57.65
2019-02-05T09:38:48.081Z,55.25
2019-02-05T09:41:17.217Z,70.03
2019-02-05T09:43:46.537Z,52.35
2019-02-05T09:46:15.650Z,62.90
2019-02-05T09:48:44.775Z,55.75
2019-02-05T09:51:13.878Z,65.40
2019-02-05T09:53:43.301Z,57.15
2019-02-05T09:56:12.458Z,80.72
2019-02-05T09:58:41.531Z,76.33
2019-02-05T10:01:10.658Z,62.13
2019-02-05T10:03:39.689Z,62.00
2019-02-05T10:06:08.710Z,61.90
2019-02-05T10:08:37.822Z,61.70
2019-02-05T10:11:07.034Z,64.80
2019-02-05T10:13:36.164Z,60.38
2019-02-05T10:16:05.394Z,63.50
2019-02-05T10:18:34.422Z,60.00
2019-02-05T10:21:03.573Z,72.65
2019-02-05T10:23:32.614Z,86.57
2019-02-05T10:26:01.728Z,72.05
2019-02-05T10:28:30.824Z,78.55
2019-02-05T10:31:01.696Z,74.80
2019-02-05T10:33:30.750Z,63.02
2019-02-05T10:36:01.399Z,62.83
2019-02-05T10:38:30.591Z,70.83
2019-02-05T10:40:59.639Z,62.35
2019-02-05T10:43:28.986Z,63.15
2019-02-05T10:45:58.103Z,67.32
2019-02-05T10:48:27.075Z,69.45
2019-02-05T10:50:56.116Z,60.28
2019-02-05T10:53:25.246Z,60.60
2019-02-05T10:55:54.359Z,61.60
2019-02-05T10:58:23.453Z,59.27
2019-02-05T11:00:52.525Z,83.67
2019-02-05T11:03:21.594Z,56.40
2019-02-05T11:05:50.709Z,79.05
2019-02-05T11:08:19.667Z,73.52
2019-02-05T11:10:48.798Z,66.10
2019-02-05T11:13:18.968Z,62.08
2019-02-05T11:15:48.336Z,70.37
2019-02-05T11:18:19.616Z,92.90
2019-02-05T11:20:48.764Z,60.28
2019-02-05T11:23:17.862Z,66.62
2019-02-05T11:25:46.962Z,64.90
2019-02-05T11:28:16.128Z,70.45
2019-02-05T11:30:45.836Z,62.65
2019-02-05T11:33:15.262Z,66.95
2019-02-05T11:35:44.425Z,73.37
2019-02-05T11:38:13.591Z,73.12
2019-02-05T11:40:42.811Z,63.05
2019-02-05T11:43:12.005Z,65.10
2019-02-05T11:45:41.132Z,67.15
2019-02-05T11:48:13.669Z,77.30
2019-02-05T11:50:42.804Z,68.07
2019-02-05T11:53:11.859Z,62.85
2019-02-05T11:55:40.949Z,56.08
2019-02-05T11:58:10.077Z,59.55
2019-02-05T12:00:52.727Z,54.38
2019-02-05T12:03:22.073Z,59.15
2019-02-05T12:05:51.135Z,55.10
2019-02-05T12:08:20.251Z,55.10
2019-02-05T12:10:49.321Z,54.08
2019-02-05T12:13:18.476Z,66.00
2019-02-05T12:15:47.618Z,58.75
2019-02-05T12:18:16.753Z,55.23
2019-02-05T12:20:46.069Z,55.12
2019-02-05T12:23:15.162Z,58.85
2019-02-05T12:25:44.207Z,56.13
2019-02-05T12:28:13.341Z,56.35
2019-02-05T12:30:45.285Z,48.48
2019-02-05T12:33:13.442Z,49.27
2019-02-05T12:35:42.556Z,50.17
2019-02-05T12:38:11.773Z,43.87
2019-02-05T12:40:40.822Z,50.70
2019-02-05T12:43:10.058Z,51.83
2019-02-05T12:45:39.162Z,44.23
2019-02-05T12:48:08.474Z,52.20
2019-02-05T12:50:37.941Z,50.73
2019-02-05T12:53:07.454Z,55.45
2019-02-05T12:55:36.687Z,48.78
2019-02-05T12:58:06.342Z,41.60
2019-02-05T13:00:40.660Z,55.17
2019-02-05T13:03:10.554Z,49.53
2019-02-05T13:05:39.980Z,50.92
2019-02-05T13:08:09.101Z,53.50
2019-02-05T13:10:40.662Z,61.65
2019-02-05T13:13:09.951Z,55.15
2019-02-05T13:15:39.210Z,56.53
2019-02-05T13:18:13.486Z,53.90
2019-02-05T13:20:42.752Z,46.05
2019-02-05T13:23:11.928Z,59.42
2019-02-05T13:25:41.242Z,57.95
2019-02-05T13:28:12.661Z,51.40
2019-02-05T13:30:41.898Z,56.70
2019-02-05T13:33:12.093Z,56.33
2019-02-05T13:35:41.818Z,59.30
2019-02-05T13:38:10.955Z,51.13
2019-02-05T13:40:40.071Z,61.30
2019-02-05T13:43:09.179Z,58.95
2019-02-05T13:45:40.015Z,57.05
2019-02-05T13:48:09.627Z,61.30
2019-02-05T13:50:38.940Z,51.02
2019-02-05T13:53:08.191Z,53.13
2019-02-05T13:55:43.318Z,48.10
2019-02-05T13:58:13.426Z,55.95
2019-02-05T14:00:50.765Z,47.75
2019-02-05T14:03:19.891Z,44.45
2019-02-05T14:05:49.134Z,49.42
2019-02-05T14:08:18.266Z,52.30
2019-02-05T14:10:48.006Z,48.68
2019-02-05T14:13:17.380Z,43.45
2019-02-05T14:15:48.997Z,51.28
2019-02-05T14:18:18.119Z,43.75
2019-02-05T14:20:47.272Z,45.63
2019-02-05T14:23:16.300Z,38.90
2019-02-05T14:25:45.429Z,41.98
2019-02-05T14:28:14.562Z,36.23
2019-02-05T14:30:49.799Z,44.35
2019-02-05T14:33:18.855Z,50.20
2019-02-05T14:35:48.022Z,44.03
2019-02-05T14:38:19.545Z,42.60
2019-02-05T14:40:48.637Z,43.73
2019-02-05T14:43:17.772Z,40.35
2019-02-05T14:45:46.859Z,39.10
2019-02-05T14:48:15.997Z,45.00
2019-02-05T14:50:47.247Z,35.23
2019-02-05T14:53:17.856Z,45.23
2019-02-05T14:55:48.763Z,47.93
2019-02-05T14:58:18.661Z,42.15
2019-02-05T15:00:47.838Z,39.73
2019-02-05T15:03:17.020Z,47.00
2019-02-05T15:05:47.023Z,46.08
2019-02-05T15:08:17.537Z,48.08
2019-02-05T15:10:46.693Z,41.63
2019-02-05T15:13:17.941Z,46.45
2019-02-05T15:15:47.078Z,42.35
2019-02-05T15:18:18.394Z,40.28
2019-02-05T15:20:49.054Z,45.28
2019-02-05T15:23:18.247Z,50.38
2019-02-05T15:25:47.959Z,39.48
2019-02-05T15:28:19.485Z,43.50
2019-02-05T15:30:51.485Z,39.45
2019-02-05T15:33:48.019Z,45.17
2019-02-05T15:36:21.816Z,40.95
2019-02-05T15:38:51.815Z,38.42
2019-02-05T15:41:21.742Z,42.35
2019-02-05T15:43:52.032Z,41.28
2019-02-05T15:46:22.392Z,45.85
2019-02-05T15:48:53.338Z,40.33
2019-02-05T15:51:24.936Z,38.17
2019-02-05T15:53:56.104Z,40.92
2019-02-05T15:56:27.705Z,42.50
2019-02-05T15:58:59.091Z,42.10
2019-02-05T16:01:29.643Z,39.30
2019-02-05T16:04:01.641Z,36.33
2019-02-05T16:06:31.589Z,45.85
2019-02-05T16:09:01.162Z,47.25
2019-02-05T16:11:31.801Z,46.85
2019-02-05T16:14:02.472Z,45.23
2019-02-05T16:16:33.292Z,41.40
2019-02-05T16:19:03.880Z,39.88
2019-02-05T16:21:35.108Z,42.88
2019-02-05T16:24:05.390Z,42.98
2019-02-05T16:26:34.626Z,41.18
2019-02-05T16:29:04.201Z,41.70
2019-02-05T16:31:34.527Z,39.70
2019-02-05T16:34:08.797Z,41.35
2019-02-05T16:36:39.431Z,43.23
2019-02-05T16:39:12.312Z,42.50
2019-02-05T16:41:43.323Z,41.15
2019-02-05T16:44:13.284Z,44.30
2019-02-05T16:46:42.947Z,43.75
2019-02-05T16:49:13.652Z,42.25
2019-02-05T16:51:44.264Z,41.00
2019-02-05T16:54:13.801Z,44.75
2019-02-05T16:56:43.651Z,44.05
2019-02-05T16:59:13.049Z,43.20
2019-02-05T17:01:42.364Z,50.95
2019-02-05T17:04:11.624Z,52.58
2019-02-05T17:06:40.949Z,54.53
2019-02-05T17:09:15.798Z,50.75
2019-02-05T17:11:45.014Z,51.77
2019-02-05T17:14:14.342Z,51.68
2019-02-05T17:16:43.578Z,50.43
2019-02-05T17:19:12.847Z,50.90
2019-02-05T17:21:42.155Z,54.60
2019-02-05T17:24:14.249Z,52.03
2019-02-05T17:26:43.602Z,55.63
2019-02-05T17:29:13.566Z,53.58
2019-02-05T17:31:43.523Z,45.73
2019-02-05T17:34:13.706Z,52.93
2019-02-05T17:36:43.865Z,42.67
2019-02-05T17:39:14.564Z,45.45
2019-02-05T17:41:44.010Z,43.20
2019-02-05T17:44:13.252Z,41.35
2019-02-05T17:46:43.774Z,46.45
2019-02-05T17:49:12.999Z,43.52
2019-02-05T17:51:42.251Z,40.58
2019-02-05T17:54:15.172Z,44.23
2019-02-05T17:56:44.560Z,39.35
2019-02-05T17:59:14.055Z,40.92
2019-02-05T18:01:43.478Z,41.20
2019-02-05T18:04:12.941Z,41.15
2019-02-05T18:06:42.259Z,38.70
2019-02-05T18:09:15.298Z,44.30
2019-02-05T18:11:45.141Z,49.77
2019-02-05T18:14:21.972Z,40.75
2019-02-05T18:16:52.937Z,48.87
2019-02-05T18:19:23.883Z,45.95
2019-02-05T18:21:55.777Z,44.48
2019-02-05T18:24:25.054Z,43.02
2019-02-05T18:26:55.421Z,44.75
2019-02-05T18:29:25.256Z,43.42
2019-02-05T18:31:56.711Z,46.83
2019-02-05T18:34:28.151Z,44.95
2019-02-05T18:36:59.897Z,46.15
2019-02-05T18:39:33.110Z,45.80
2019-02-05T18:42:03.381Z,49.25
2019-02-05T18:44:32.661Z,40.83
2019-02-05T18:47:02.625Z,45.25
2019-02-05T18:49:33.074Z,43.35
2019-02-05T18:52:03.565Z,41.65
2019-02-05T18:54:33.885Z,34.40
2019-02-05T18:57:03.950Z,36.23
2019-02-05T18:59:34.051Z,34.30
2019-02-05T19:02:04.908Z,37.40
2019-02-05T19:04:34.671Z,36.15
2019-02-05T19:07:07.582Z,34.43
2019-02-05T19:09:39.789Z,28.92
2019-02-05T19:12:09.686Z,32.00
2019-02-05T19:14:39.791Z,31.48
2019-02-05T19:17:13.780Z,31.02
2019-02-05T19:19:46.703Z,31.52
2019-02-05T19:22:16.495Z,30.32
2019-02-05T19:24:54.298Z,34.33
2019-02-05T19:27:23.734Z,36.40
2019-02-05T19:29:57.245Z,31.50
2019-02-05T19:32:28.829Z,32.83
2019-02-05T19:34:59.489Z,33.20
2019-02-05T19:37:29.835Z,31.95
2019-02-05T19:39:59.136Z,29.37
2019-02-05T19:42:29.732Z,31.75
2019-02-05T19:45:25.365Z,31.07
2019-02-05T19:47:55.154Z,31.87
2019-02-05T19:50:24.351Z,29.63
2019-02-05T19:52:53.478Z,30.25
2019-02-05T19:55:22.653Z,28.60
2019-02-05T19:57:52.504Z,30.40
2019-02-05T20:00:22.032Z,34.35
2019-02-05T20:02:51.260Z,32.15
2019-02-05T20:05:20.556Z,30.68
2019-02-05T20:07:50.119Z,32.70
2019-02-05T20:10:19.379Z,32.15
2019-02-05T20:12:48.549Z,34.60
2019-02-05T20:15:23.685Z,30.88
2019-02-05T20:17:52.814Z,33.20
2019-02-05T20:20:24.014Z,29.95
2019-02-05T20:22:52.938Z,30.00
2019-02-05T20:25:24.020Z,33.25
2019-02-05T20:27:52.761Z,31.23
2019-02-05T20:30:22.085Z,29.55
2019-02-05T20:32:51.447Z,34.15
2019-02-05T20:35:20.629Z,35.52
2019-02-05T20:37:50.384Z,29.87
2019-02-05T20:40:19.715Z,31.35
2019-02-05T20:42:49.013Z,31.73
2019-02-05T20:45:18.139Z,29.37
2019-02-05T20:47:47.444Z,30.68
2019-02-05T20:50:16.683Z,33.20
2019-02-05T20:52:45.940Z,30.05
2019-02-05T20:55:16.174Z,32.10
2019-02-05T20:57:45.382Z,29.20
2019-02-05T21:00:17.479Z,30.77
2019-02-05T21:02:46.703Z,27.35
2019-02-05T21:05:17.163Z,28.60
2019-02-05T21:07:46.488Z,30.10
2019-02-05T21:10:18.672Z,26.77
2019-02-05T21:12:47.829Z,28.32
2019-02-05T21:15:17.326Z,28.83
2019-02-05T21:17:46.603Z,31.25
2019-02-05T21:20:28.464Z,28.50
2019-02-05T21:22:48.064Z,31.62
2019-02-05T21:25:18.238Z,26.52
2019-02-05T21:27:47.392Z,26.27
2019-02-05T21:30:18.253Z,29.00
2019-02-05T21:32:48.051Z,27.17
2019-02-05T21:35:17.259Z,27.35
2019-02-05T21:37:46.409Z,25.00
2019-02-05T21:40:18.345Z,29.15
2019-02-05T21:42:47.471Z,24.55
2019-02-05T21:45:18.298Z,31.65
2019-02-05T21:47:47.401Z,31.65
2019-02-05T21:50:18.488Z,29.05
2019-02-05T21:52:48.637Z,28.75
2019-02-05T21:55:18.350Z,30.32
2019-02-05T21:57:47.598Z,28.10
2019-02-05T22:00:27.566Z,28.27
2019-02-05T22:02:56.687Z,26.68
2019-02-05T22:05:26.087Z,27.07
2019-02-05T22:07:55.330Z,31.80
2019-02-05T22:10:24.746Z,27.55
2019-02-05T22:12:53.935Z,28.17
2019-02-05T22:15:23.609Z,26.55
2019-02-05T22:17:52.754Z,28.50
2019-02-05T22:20:23.517Z,27.15
2019-02-05T22:22:52.677Z,27.27
2019-02-05T22:25:27.264Z,29.45
2019-02-05T22:27:56.399Z,30.60
2019-02-05T22:30:28.365Z,26.40
2019-02-05T22:32:57.882Z,27.58
2019-02-05T22:35:27.209Z,23.70
2019-02-05T22:37:56.335Z,25.00
2019-02-05T22:40:26.270Z,24.80
2019-02-05T22:42:55.410Z,24.47
2019-02-05T22:45:26.564Z,27.75
2019-02-05T22:47:55.695Z,26.50
2019-02-05T22:50:26.419Z,24.70
2019-02-05T22:52:55.623Z,22.45
2019-02-05T22:55:24.835Z,24.20
2019-02-05T22:57:53.886Z,25.00
2019-02-05T23:01:02.926Z,24.40
2019-02-05T23:03:38.678Z,27.00
2019-02-05T23:06:36.121Z,22.87
2019-02-05T23:09:27.346Z,23.70
2019-02-05T23:12:18.431Z,22.02
2019-02-05T23:14:50.999Z,23.62
2019-02-05T23:17:20.214Z,25.95
2019-02-05T23:19:49.323Z,22.48
2019-02-05T23:22:18.437Z,23.55
2019-02-05T23:24:47.439Z,22.17
2019-02-05T23:27:16.480Z,19.67
2019-02-05T23:29:45.645Z,23.25
2019-02-05T23:32:14.663Z,22.77
2019-02-05T23:34:43.748Z,21.93
2019-02-05T23:37:14.210Z,21.82
2019-02-05T23:39:43.345Z,22.93
2019-02-05T23:42:12.330Z,18.75
2019-02-05T23:44:41.520Z,21.20
2019-02-05T23:47:10.486Z,21.77
2019-02-05T23:49:39.508Z,22.15
2019-02-05T23:52:08.496Z,21.07
2019-02-05T23:54:37.421Z,22.65
2019-02-05T23:57:06.419Z,18.87
2019-02-05T23:59:36.801Z,17.67
